createdAt,value
2022-08-05T00:00:20.353Z,1.20
2022-08-05T00:02:51.458Z,1.50
2022-08-05T00:06:01.858Z,1.30
2022-08-05T00:08:19.978Z,1.90
2022-08-05T00:10:56.426Z,1.53
2022-08-05T00:13:39.462Z,1.40
2022-08-05T00:16:12.484Z,1.60
2022-08-05T00:18:48.199Z,1.23
2022-08-05T00:21:17.684Z,1.30
2022-08-05T00:24:05.053Z,1.47
2022-08-05T00:26:34.038Z,1.23
2022-08-05T00:29:00.837Z,1.40
2022-08-05T00:31:53.134Z,1.73
2022-08-05T00:34:53.350Z,2.07
2022-08-05T00:37:12.816Z,1.47
2022-08-05T00:39:44.392Z,1.80
2022-08-05T00:42:38.071Z,1.67
2022-08-05T00:45:08.856Z,2.23
2022-08-05T00:47:53.200Z,1.70
2022-08-05T00:50:25.115Z,1.40
2022-08-05T00:52:53.266Z,1.87
2022-08-05T00:55:20.312Z,1.70
2022-08-05T00:57:58.127Z,1.57
2022-08-05T01:00:30.190Z,1.50
2022-08-05T01:02:59.686Z,1.50
2022-08-05T01:05:27.578Z,1.50
2022-08-05T01:08:30.377Z,1.87
2022-08-05T01:10:52.265Z,1.97
2022-08-05T01:13:57.421Z,1.80
2022-08-05T01:16:44.170Z,2.07
2022-08-05T01:19:56.429Z,1.63
2022-08-05T01:22:34.215Z,2.07
2022-08-05T01:25:18.376Z,1.97
2022-08-05T01:28:17.183Z,1.50
2022-08-05T01:30:53.957Z,2.20
2022-08-05T01:33:26.195Z,2.07
2022-08-05T01:35:55.532Z,1.70
2022-08-05T01:38:27.514Z,2.20
2022-08-05T01:41:01.615Z,1.83
2022-08-05T01:43:29.314Z,1.70
2022-08-05T01:45:58.901Z,2.13
2022-08-05T01:48:36.716Z,2.03
2022-08-05T01:51:12.526Z,1.87
2022-08-05T01:53:56.961Z,1.90
2022-08-05T01:58:29.944Z,2.30
2022-08-05T01:59:23.202Z,2.00
2022-08-05T02:01:52.685Z,1.83
2022-08-05T02:04:24.163Z,2.07
2022-08-05T02:06:52.879Z,1.83
2022-08-05T02:09:20.614Z,1.83
2022-08-05T02:12:29.569Z,1.77
2022-08-05T02:15:12.223Z,1.77
2022-08-05T02:18:28.228Z,1.80
2022-08-05T02:20:47.004Z,1.60
2022-08-05T02:23:14.842Z,1.67
2022-08-05T02:25:49.855Z,1.70
2022-08-05T02:28:32.146Z,1.87
2022-08-05T02:31:14.659Z,1.63
2022-08-05T02:33:48.610Z,2.27
2022-08-05T02:36:27.407Z,2.13
2022-08-05T02:38:57.749Z,1.77
2022-08-05T02:41:28.604Z,1.67
2022-08-05T02:44:12.230Z,2.17
2022-08-05T02:46:53.159Z,1.90
2022-08-05T02:49:27.273Z,1.93
2022-08-05T02:52:05.489Z,1.60
2022-08-05T02:54:36.374Z,2.00
2022-08-05T02:57:10.235Z,2.07
2022-08-05T02:59:55.907Z,2.17
2022-08-05T03:02:29.023Z,1.90
2022-08-05T03:04:57.932Z,1.60
2022-08-05T03:08:00.245Z,1.93
2022-08-05T03:10:16.194Z,1.73
2022-08-05T03:12:52.481Z,2.40
2022-08-05T03:15:21.258Z,2.73
2022-08-05T03:17:54.059Z,2.60
2022-08-05T03:20:22.587Z,2.30
2022-08-05T03:22:51.501Z,2.97
2022-08-05T03:26:03.869Z,2.90
2022-08-05T03:28:09.192Z,3.40
2022-08-05T03:30:36.759Z,3.53
2022-08-05T03:33:06.411Z,3.73
2022-08-05T03:35:41.022Z,4.17
2022-08-05T03:38:12.661Z,4.73
2022-08-05T03:40:48.691Z,5.10
2022-08-05T03:44:08.815Z,4.90
2022-08-05T03:46:04.938Z,5.63
2022-08-05T03:48:35.305Z,5.80
2022-08-05T03:52:38.008Z,5.43
2022-08-05T03:55:06.979Z,5.37
2022-08-05T03:57:16.141Z,5.27
2022-08-05T03:59:55.452Z,5.13
2022-08-05T04:02:38.358Z,6.37
2022-08-05T04:05:09.900Z,5.77
2022-08-05T04:07:46.766Z,5.87
2022-08-05T04:10:27.916Z,6.70
2022-08-05T04:12:58.930Z,6.97
2022-08-05T04:15:27.812Z,6.83
2022-08-05T04:17:57.397Z,6.13
2022-08-05T04:20:26.701Z,6.10
2022-08-05T04:22:53.623Z,4.97
2022-08-05T04:25:24.339Z,4.10
2022-08-05T04:28:11.440Z,4.07
2022-08-05T04:30:39.806Z,4.17
2022-08-05T04:33:06.578Z,3.80
2022-08-05T04:36:15.635Z,2.97
2022-08-05T04:38:21.378Z,3.20
2022-08-05T04:40:50.848Z,2.40
2022-08-05T04:43:17.980Z,2.30
2022-08-05T04:45:55.606Z,2.90
2022-08-05T04:48:27.660Z,2.30
2022-08-05T04:51:03.813Z,2.63
2022-08-05T04:53:39.133Z,2.23
2022-08-05T04:56:32.912Z,2.73
2022-08-05T04:58:56.469Z,2.43
2022-08-05T05:02:06.175Z,2.50
2022-08-05T05:04:10.309Z,2.37
2022-08-05T05:06:44.556Z,2.60
2022-08-05T05:09:14.112Z,2.53
2022-08-05T05:11:53.123Z,2.00
2022-08-05T05:14:28.106Z,2.20
2022-08-05T05:17:00.312Z,2.30
2022-08-05T05:19:36.164Z,2.10
2022-08-05T05:22:24.032Z,2.20
2022-08-05T05:24:57.548Z,2.53
2022-08-05T05:27:44.776Z,2.47
2022-08-05T05:30:29.419Z,2.53
2022-08-05T05:33:03.452Z,2.60
2022-08-05T05:35:37.873Z,2.57
2022-08-05T05:38:09.236Z,2.90
2022-08-05T05:40:43.814Z,2.90
2022-08-05T05:43:22.229Z,2.50
2022-08-05T05:46:05.288Z,2.37
2022-08-05T05:48:34.604Z,2.37
2022-08-05T05:51:14.804Z,2.67
2022-08-05T05:53:54.597Z,2.77
2022-08-05T05:56:32.543Z,2.67
2022-08-05T05:59:10.347Z,3.20
2022-08-05T06:01:41.186Z,2.83
2022-08-05T06:04:25.028Z,2.23
2022-08-05T06:06:51.965Z,2.67
2022-08-05T06:09:35.387Z,2.83
2022-08-05T06:12:06.037Z,3.00
2022-08-05T06:14:36.555Z,3.03
2022-08-05T06:17:22.419Z,2.60
2022-08-05T06:19:56.678Z,2.50
2022-08-05T06:22:34.776Z,2.73
2022-08-05T06:25:24.241Z,3.10
2022-08-05T06:28:10.812Z,3.03
2022-08-05T06:30:37.770Z,3.30
2022-08-05T06:33:04.573Z,3.20
2022-08-05T06:36:07.984Z,3.10
2022-08-05T06:38:35.811Z,2.57
2022-08-05T06:41:03.502Z,3.87
2022-08-05T06:43:57.661Z,3.63
2022-08-05T06:46:17.695Z,2.90
2022-08-05T06:48:54.660Z,2.73
2022-08-05T06:51:29.861Z,3.13
2022-08-05T06:54:02.707Z,2.50
2022-08-05T06:56:34.387Z,3.53
2022-08-05T06:59:03.056Z,2.73
2022-08-05T07:01:32.398Z,2.90
2022-08-05T07:04:02.362Z,3.00
2022-08-05T07:06:30.475Z,3.10
2022-08-05T07:08:59.348Z,2.30
2022-08-05T07:11:28.691Z,2.90
2022-08-05T07:14:20.143Z,2.23
2022-08-05T07:18:01.401Z,2.43
2022-08-05T07:20:31.454Z,2.50
2022-08-05T07:22:35.187Z,2.37
2022-08-05T07:25:24.117Z,2.50
2022-08-05T07:27:57.228Z,2.73
2022-08-05T07:30:34.432Z,2.50
2022-08-05T07:33:09.515Z,2.27
2022-08-05T07:36:03.940Z,2.70
2022-08-05T07:38:33.532Z,2.70
2022-08-05T07:42:09.594Z,2.47
2022-08-05T07:43:58.325Z,3.07
2022-08-05T07:46:27.562Z,2.53
2022-08-05T07:49:02.776Z,2.93
2022-08-05T07:51:48.734Z,2.53
2022-08-05T07:54:31.190Z,2.73
2022-08-05T07:57:01.973Z,2.67
2022-08-05T07:59:48.749Z,2.57
2022-08-05T08:02:17.597Z,2.23
2022-08-05T08:04:49.528Z,2.03
2022-08-05T08:07:22.137Z,2.07
2022-08-05T08:09:52.485Z,2.20
2022-08-05T08:12:36.824Z,1.93
2022-08-05T08:15:09.499Z,2.13
2022-08-05T08:17:50.745Z,1.63
2022-08-05T08:21:00.051Z,1.77
2022-08-05T08:23:11.703Z,2.20
2022-08-05T08:26:00.146Z,1.73
2022-08-05T08:28:36.530Z,1.43
2022-08-05T08:31:05.925Z,2.00
2022-08-05T08:33:37.586Z,2.03
2022-08-05T08:36:38.451Z,2.17
2022-08-05T08:38:55.945Z,2.00
2022-08-05T08:41:52.244Z,1.33
2022-08-05T08:45:23.067Z,1.90
2022-08-05T08:47:21.840Z,1.90
2022-08-05T08:50:14.637Z,2.40
2022-08-05T08:52:53.245Z,1.97
2022-08-05T08:56:03.116Z,1.73
2022-08-05T08:58:09.295Z,1.73
2022-08-05T09:00:36.754Z,2.20
2022-08-05T09:03:06.609Z,2.30
2022-08-05T09:05:39.019Z,2.33
2022-08-05T09:08:27.294Z,1.70
2022-08-05T09:10:54.653Z,1.87
2022-08-05T09:13:24.853Z,1.87
2022-08-05T09:15:58.710Z,1.80
2022-08-05T09:18:25.950Z,2.13
2022-08-05T09:20:52.944Z,2.00
2022-08-05T09:23:21.572Z,2.00
2022-08-05T09:26:00.818Z,2.10
2022-08-05T09:28:32.381Z,1.90
2022-08-05T09:32:38.706Z,1.80
2022-08-05T09:34:01.779Z,1.90
2022-08-05T09:36:55.186Z,2.03
2022-08-05T09:39:27.797Z,2.00
2022-08-05T09:42:08.777Z,1.93
2022-08-05T09:44:42.722Z,2.10
2022-08-05T09:47:16.976Z,1.90
2022-08-05T09:50:01.262Z,2.00
2022-08-05T09:52:34.302Z,2.57
2022-08-05T09:55:06.260Z,2.03
2022-08-05T09:57:43.447Z,1.83
2022-08-05T10:00:19.064Z,2.20
2022-08-05T10:02:49.555Z,1.80
2022-08-05T10:05:21.878Z,1.80
2022-08-05T10:08:36.107Z,1.70
2022-08-05T10:10:53.943Z,1.03
2022-08-05T10:13:45.676Z,1.00
2022-08-05T10:16:33.762Z,1.37
2022-08-05T10:19:01.844Z,1.47
2022-08-05T10:21:40.811Z,1.13
2022-08-05T10:24:13.455Z,1.53
2022-08-05T10:26:48.948Z,1.10
2022-08-05T10:30:05.745Z,1.13
2022-08-05T10:32:52.208Z,1.20
2022-08-05T10:34:57.850Z,1.33
2022-08-05T10:37:41.368Z,1.40
2022-08-05T10:40:45.028Z,1.27
2022-08-05T10:43:17.470Z,1.20
2022-08-05T10:46:07.424Z,1.37
2022-08-05T10:48:52.691Z,1.40
2022-08-05T10:51:28.706Z,1.53
2022-08-05T10:53:58.563Z,1.17
2022-08-05T10:56:36.564Z,1.77
2022-08-05T10:59:12.316Z,1.10
2022-08-05T11:01:55.012Z,1.30
2022-08-05T11:04:31.806Z,1.17
2022-08-05T11:07:06.565Z,1.10
2022-08-05T11:10:03.950Z,1.50
2022-08-05T11:12:45.321Z,1.37
2022-08-05T11:15:21.312Z,1.67
2022-08-05T11:18:11.802Z,1.30
2022-08-05T11:20:44.301Z,1.60
2022-08-05T11:24:04.529Z,1.60
2022-08-05T11:26:32.987Z,1.40
2022-08-05T11:29:12.007Z,1.20
2022-08-05T11:31:57.004Z,1.80
2022-08-05T11:34:51.688Z,2.30
2022-08-05T11:38:27.961Z,2.37
2022-08-05T11:41:35.084Z,1.77
2022-08-05T11:44:05.473Z,1.13
2022-08-05T11:46:58.422Z,1.47
2022-08-05T11:49:28.440Z,1.43
2022-08-05T11:51:57.453Z,1.47
2022-08-05T11:54:33.554Z,1.10
2022-08-05T11:57:07.651Z,2.13
2022-08-05T11:59:41.252Z,1.50
2022-08-05T12:02:30.475Z,1.20
2022-08-05T12:05:07.494Z,2.50
2022-08-05T12:08:08.670Z,1.77
2022-08-05T12:10:42.970Z,1.50
2022-08-05T12:13:17.313Z,2.10
2022-08-05T12:15:55.891Z,1.80
2022-08-05T12:18:38.898Z,2.23
2022-08-05T12:21:10.959Z,1.60
2022-08-05T12:23:42.890Z,1.87
2022-08-05T12:26:10.319Z,1.20
2022-08-05T12:28:38.382Z,1.33
2022-08-05T12:31:05.736Z,1.33
2022-08-05T12:33:36.537Z,1.10
2022-08-05T12:36:08.532Z,1.37
2022-08-05T12:38:41.165Z,1.53
2022-08-05T12:41:14.759Z,1.37
2022-08-05T12:44:02.349Z,1.00
2022-08-05T12:46:31.899Z,1.30
2022-08-05T12:49:13.672Z,2.93
2022-08-05T12:52:13.942Z,1.03
2022-08-05T12:54:35.467Z,1.37
2022-08-05T12:57:09.507Z,0.87
2022-08-05T13:01:56.894Z,0.90
2022-08-05T13:02:42.407Z,1.20
2022-08-05T13:05:15.036Z,1.30
2022-08-05T13:08:00.408Z,1.20
2022-08-05T13:10:31.073Z,1.10
2022-08-05T13:12:58.372Z,0.80
2022-08-05T13:15:41.886Z,1.10
2022-08-05T13:18:19.899Z,0.93
2022-08-05T13:20:49.302Z,0.83
2022-08-05T13:23:22.184Z,0.97
2022-08-05T13:25:52.502Z,1.40
2022-08-05T13:28:26.175Z,1.10
2022-08-05T13:30:53.183Z,0.80
2022-08-05T13:34:23.128Z,1.10
2022-08-05T13:36:09.190Z,1.10
2022-08-05T13:38:41.998Z,1.00
2022-08-05T13:41:13.024Z,1.37
2022-08-05T13:43:45.130Z,1.07
2022-08-05T13:49:12.761Z,1.40
2022-08-05T13:51:45.817Z,1.03
2022-08-05T13:54:15.459Z,1.13
2022-08-05T13:56:45.597Z,1.30
2022-08-05T13:59:23.802Z,1.10
2022-08-05T14:01:59.267Z,1.10
2022-08-05T14:04:56.710Z,1.03
2022-08-05T14:08:00.441Z,1.10
2022-08-05T14:10:28.553Z,1.17
2022-08-05T14:12:56.097Z,1.10
2022-08-05T14:16:09.217Z,1.10
2022-08-05T14:18:14.998Z,1.97
2022-08-05T14:20:47.681Z,1.20
2022-08-05T14:23:24.026Z,0.73
2022-08-05T14:25:53.885Z,1.10
2022-08-05T14:28:26.457Z,1.20
2022-08-05T14:30:58.138Z,1.33
2022-08-05T14:33:25.074Z,0.97
2022-08-05T14:35:54.453Z,1.20
2022-08-05T14:38:31.763Z,1.10
2022-08-05T14:41:00.507Z,0.90
2022-08-05T14:43:59.057Z,1.27
2022-08-05T14:46:14.217Z,1.60
2022-08-05T14:48:41.497Z,1.03
2022-08-05T14:51:09.381Z,1.30
2022-08-05T14:53:44.135Z,4.47
2022-08-05T14:56:13.461Z,1.30
2022-08-05T14:58:47.880Z,1.17
2022-08-05T15:01:24.335Z,1.33
2022-08-05T15:04:11.417Z,1.20
2022-08-05T15:06:39.032Z,0.97
2022-08-05T15:09:07.478Z,0.77
2022-08-05T15:11:53.088Z,1.30
2022-08-05T15:14:34.562Z,0.70
2022-08-05T15:17:04.970Z,1.10
2022-08-05T15:19:32.368Z,0.93
2022-08-05T15:22:01.401Z,1.50
2022-08-05T15:24:29.014Z,1.03
2022-08-05T15:26:57.042Z,1.13
2022-08-05T15:29:30.019Z,1.03
2022-08-05T15:32:02.439Z,1.13
2022-08-05T15:34:33.568Z,1.00
2022-08-05T15:37:06.197Z,1.10
2022-08-05T15:40:58.404Z,1.63
2022-08-05T15:42:56.822Z,0.80
2022-08-05T15:45:10.469Z,1.10
2022-08-05T15:47:38.292Z,1.20
2022-08-05T15:50:07.211Z,1.40
2022-08-05T15:52:54.776Z,1.00
2022-08-05T15:55:24.822Z,1.00
2022-08-05T15:58:09.305Z,1.10
2022-08-05T16:00:50.595Z,0.73
2022-08-05T16:03:30.334Z,1.20
2022-08-05T16:05:59.661Z,0.90
2022-08-05T16:08:30.617Z,1.00
2022-08-05T16:10:58.311Z,1.03
2022-08-05T16:13:34.279Z,1.27
2022-08-05T16:16:03.349Z,0.80
2022-08-05T16:18:32.744Z,0.70
2022-08-05T16:21:04.246Z,0.90
2022-08-05T16:23:53.076Z,0.83
2022-08-05T16:26:20.099Z,0.87
2022-08-05T16:28:53.693Z,0.80
2022-08-05T16:31:21.653Z,0.90
2022-08-05T16:33:49.033Z,1.13
2022-08-05T16:36:20.564Z,1.05
2022-08-05T16:38:55.005Z,1.20
2022-08-05T16:42:14.007Z,1.15
2022-08-05T16:44:10.795Z,0.98
2022-08-05T16:46:40.943Z,1.55
2022-08-05T16:49:09.928Z,1.30
2022-08-05T16:51:50.591Z,1.00
2022-08-05T16:54:24.010Z,1.20
2022-08-05T16:56:54.428Z,1.20
2022-08-05T16:59:21.289Z,1.30
2022-08-05T17:01:54.063Z,1.20
2022-08-05T17:04:27.735Z,1.20
2022-08-05T17:06:57.053Z,1.67
2022-08-05T17:09:29.577Z,1.30
2022-08-05T17:12:00.039Z,1.27
2022-08-05T17:14:37.325Z,1.08
2022-08-05T17:17:14.607Z,0.85
2022-08-05T17:19:45.556Z,0.77
2022-08-05T17:22:24.620Z,1.00
2022-08-05T17:24:57.162Z,0.98
2022-08-05T17:27:26.298Z,1.20
2022-08-05T17:30:00.674Z,1.50
2022-08-05T17:32:29.898Z,1.00
2022-08-05T17:34:58.111Z,0.77
2022-08-05T17:37:40.720Z,0.52
2022-08-05T17:40:14.859Z,0.63
2022-08-05T17:42:51.006Z,1.00
2022-08-05T17:45:21.815Z,1.00
2022-08-05T17:47:54.589Z,0.90
2022-08-05T17:50:29.522Z,0.73
2022-08-05T17:53:02.657Z,0.80
2022-08-05T17:55:37.808Z,1.20
2022-08-05T17:58:09.917Z,1.03
2022-08-05T18:00:44.278Z,1.33
2022-08-05T18:03:33.440Z,1.20
2022-08-05T18:06:06.113Z,1.13
2022-08-05T18:08:40.536Z,1.20
2022-08-05T18:11:11.895Z,0.90
2022-08-05T18:13:52.061Z,0.70
2022-08-05T18:16:20.571Z,0.80
2022-08-05T18:18:48.591Z,0.70
2022-08-05T18:21:19.632Z,0.70
2022-08-05T18:23:48.278Z,1.93
2022-08-05T18:26:16.244Z,0.67
2022-08-05T18:28:46.597Z,0.47
2022-08-05T18:31:15.909Z,0.80
2022-08-05T18:33:46.637Z,0.70
2022-08-05T18:36:15.392Z,0.60
2022-08-05T18:38:43.003Z,0.50
2022-08-05T18:41:55.146Z,1.10
2022-08-05T18:43:58.066Z,1.30
2022-08-05T18:46:32.725Z,0.73
2022-08-05T18:49:20.396Z,1.03
2022-08-05T18:52:09.135Z,0.90
2022-08-05T18:54:41.308Z,0.80
2022-08-05T18:57:15.390Z,1.07
2022-08-05T19:00:02.181Z,0.90
2022-08-05T19:02:29.717Z,0.73
2022-08-05T19:05:02.750Z,0.90
2022-08-05T19:07:47.945Z,1.10
2022-08-05T19:10:18.659Z,1.20
2022-08-05T19:12:55.369Z,0.87
2022-08-05T19:15:57.485Z,0.90
2022-08-05T19:18:20.648Z,0.90
2022-08-05T19:20:52.128Z,0.80
2022-08-05T19:24:04.171Z,1.00
2022-08-05T19:26:09.362Z,1.10
2022-08-05T19:28:44.497Z,1.30
2022-08-05T19:31:15.041Z,0.80
2022-08-05T19:33:55.644Z,1.20
2022-08-05T19:36:23.458Z,1.23
2022-08-05T19:38:50.301Z,1.70
2022-08-05T19:41:17.124Z,1.50
2022-08-05T19:44:06.316Z,1.30
2022-08-05T19:46:37.809Z,1.67
2022-08-05T19:49:07.758Z,1.20
2022-08-05T19:52:09.142Z,1.70
2022-08-05T19:54:31.501Z,1.57
2022-08-05T19:57:09.266Z,1.77
2022-08-05T19:59:59.428Z,1.53
2022-08-05T20:02:31.313Z,1.70
2022-08-05T20:04:58.948Z,1.80
2022-08-05T20:07:47.835Z,1.70
2022-08-05T20:10:14.693Z,1.90
2022-08-05T20:12:47.676Z,1.63
2022-08-05T20:15:48.851Z,2.00
2022-08-05T20:18:09.692Z,2.00
2022-08-05T20:20:51.207Z,2.67
2022-08-05T20:23:22.273Z,2.03
2022-08-05T20:25:49.236Z,1.97
2022-08-05T20:28:19.353Z,1.60
2022-08-05T20:30:46.352Z,1.80
2022-08-05T20:33:16.296Z,1.77
2022-08-05T20:35:45.877Z,1.90
2022-08-05T20:38:20.031Z,1.50
2022-08-05T20:40:53.602Z,2.00
2022-08-05T20:43:57.934Z,1.57
2022-08-05T20:46:10.200Z,1.70
2022-08-05T20:48:39.599Z,1.70
2022-08-05T20:51:09.242Z,1.80
2022-08-05T20:53:41.012Z,1.60
2022-08-05T20:56:09.742Z,1.80
2022-08-05T20:58:36.892Z,1.70
2022-08-05T21:01:04.659Z,1.70
2022-08-05T21:03:34.486Z,1.60
2022-08-05T21:06:02.160Z,1.97
2022-08-05T21:08:41.799Z,2.30
2022-08-05T21:11:12.273Z,2.27
2022-08-05T21:13:47.975Z,2.40
2022-08-05T21:16:23.132Z,2.10
2022-08-05T21:19:00.120Z,2.10
2022-08-05T21:21:39.196Z,1.67
2022-08-05T21:24:07.329Z,2.13
2022-08-05T21:26:34.265Z,1.70
2022-08-05T21:29:03.916Z,1.80
2022-08-05T21:31:41.123Z,1.60
2022-08-05T21:34:10.429Z,2.27
2022-08-05T21:36:38.548Z,1.70
2022-08-05T21:39:05.523Z,1.60
2022-08-05T21:41:35.542Z,1.80
2022-08-05T21:44:04.791Z,1.60
2022-08-05T21:46:34.568Z,1.93
2022-08-05T21:49:07.384Z,1.67
2022-08-05T21:52:15.837Z,2.03
2022-08-05T21:54:27.809Z,1.80
2022-08-05T21:57:28.480Z,1.83
2022-08-05T22:00:02.127Z,2.03
2022-08-05T22:02:28.622Z,1.83
2022-08-05T22:04:58.228Z,2.20
2022-08-05T22:07:39.423Z,2.13
2022-08-05T22:10:14.184Z,1.67
2022-08-05T22:12:45.079Z,2.40
2022-08-05T22:16:01.747Z,2.67
2022-08-05T22:18:06.111Z,2.37
2022-08-05T22:20:35.715Z,2.60
2022-08-05T22:23:25.357Z,2.60
2022-08-05T22:26:30.571Z,2.10
2022-08-05T22:28:57.478Z,2.20
2022-08-05T22:31:30.046Z,2.53
2022-08-05T22:34:01.611Z,2.37
2022-08-05T22:36:29.267Z,2.50
2022-08-05T22:38:56.851Z,2.20
2022-08-05T22:42:04.422Z,2.17
2022-08-05T22:44:12.114Z,1.90
2022-08-05T22:46:40.904Z,2.10
2022-08-05T22:49:46.168Z,2.27
2022-08-05T22:52:05.842Z,2.00
2022-08-05T22:54:38.820Z,2.40
2022-08-05T22:57:07.071Z,2.87
2022-08-05T22:59:45.057Z,2.80
2022-08-05T23:02:17.987Z,2.70
2022-08-05T23:04:52.119Z,3.43
2022-08-05T23:07:22.288Z,3.47
2022-08-05T23:09:54.658Z,3.17
2022-08-05T23:12:28.559Z,3.20
2022-08-05T23:14:56.187Z,3.53
2022-08-05T23:17:34.775Z,3.63
2022-08-05T23:20:16.831Z,4.10
2022-08-05T23:22:48.652Z,4.07
2022-08-05T23:25:51.726Z,4.00
2022-08-05T23:28:07.061Z,4.50
2022-08-05T23:30:40.524Z,4.17
2022-08-05T23:33:22.593Z,4.10
2022-08-05T23:35:55.878Z,4.10
2022-08-05T23:38:24.378Z,4.73
2022-08-05T23:40:52.786Z,4.10
2022-08-05T23:43:25.245Z,4.80
2022-08-05T23:46:19.723Z,4.37
2022-08-05T23:49:00.035Z,5.67
2022-08-05T23:51:54.922Z,5.03
2022-08-05T23:54:25.337Z,4.77
2022-08-05T23:56:54.013Z,5.17
2022-08-05T23:59:20.817Z,5.00
